Time;durP1;ratioP1;P1;durP2;ratioP2;P2;SDS_P1;SDS_P2;PMS_P1;PMS_P2;Temp;Humidity;BMP_temperature;BMP_pressure;BME280_temperature;BME280_humidity;BME280_pressure;Samples;Min_cycle;Max_cycle;Signal;HPM_P1;HPM_P2
2022/08/08 00:01:00;;;;;;;1.33;0.77;;;;;;;24.26;40.62;99824.47;4476141;32;34096;-78
2022/08/08 00:04:05;;;;;;;3.10;0.80;;;;;;;24.22;41.41;99825.59;4471703;32;34119;-77
2022/08/08 00:06:42;;;;;;;1.35;0.70;;;;;;;23.94;41.56;99820.47;4474237;32;33536;-78
2022/08/08 00:09:25;;;;;;;0.82;0.62;;;;;;;24.08;41.63;99817.75;4477520;32;34451;-78
2022/08/08 00:12:04;;;;;;;0.95;0.60;;;;;;;24.07;41.64;99821.34;4467139;32;34848;-78
2022/08/08 00:14:48;;;;;;;0.77;0.68;;;;;;;24.03;41.49;99823.34;4478720;32;33141;-79
2022/08/08 00:17:39;;;;;;;1.20;0.70;;;;;;;23.75;41.82;99812.88;4468102;32;31765;-77
2022/08/08 00:20:34;;;;;;;1.10;0.75;;;;;;;23.74;42.34;99821.78;4479377;32;33855;-78
2022/08/08 00:23:08;;;;;;;2.00;0.68;;;;;;;23.80;42.03;99810.78;4462937;32;33771;-77
2022/08/08 00:25:40;;;;;;;0.95;0.68;;;;;;;23.75;42.14;99807.56;4461732;32;33814;-79
2022/08/08 00:28:28;;;;;;;1.10;0.80;;;;;;;23.82;41.86;99803.56;4472917;32;33101;-77
2022/08/08 00:31:14;;;;;;;1.58;0.80;;;;;;;23.77;41.99;99795.09;4461924;32;33787;-77
2022/08/08 00:37:10;;;;;;;2.50;0.80;;;;;;;23.84;42.36;99791.09;4468414;32;34562;-79
2022/08/08 00:40:19;;;;;;;2.60;0.88;;;;;;;23.89;41.94;99788.13;4462496;32;33152;-78
2022/08/08 00:43:32;;;;;;;1.35;0.93;;;;;;;23.85;41.96;99790.16;4466831;32;33777;-78
2022/08/08 00:46:25;;;;;;;0.52;0.52;;;;;;;23.90;41.81;99789.84;4463254;32;34114;-79
2022/08/08 00:49:11;;;;;;;0.98;0.57;;;;;;;23.85;42.21;99791.00;4466260;32;33861;-77
2022/08/08 00:52:03;;;;;;;2.08;1.02;;;;;;;23.86;42.14;99791.84;4464009;32;34097;-78
2022/08/08 00:54:47;;;;;;;2.65;0.77;;;;;;;23.87;42.29;99788.22;4465960;32;34003;-78
2022/08/08 00:57:50;;;;;;;3.17;0.70;;;;;;;23.92;42.71;99791.44;4469259;32;33923;-79
2022/08/08 01:00:28;;;;;;;1.55;0.82;;;;;;;23.87;41.77;99787.37;4480598;32;33763;-78
2022/08/08 01:03:33;;;;;;;3.05;0.88;;;;;;;23.98;41.62;99790.16;4477045;32;34440;-79
2022/08/08 01:06:50;;;;;;;2.25;1.12;;;;;;;23.93;41.79;99793.13;4475558;32;33889;-81
2022/08/08 01:10:03;;;;;;;1.27;0.75;;;;;;;23.81;42.17;99786.84;4468976;32;33904;-82
2022/08/08 01:13:08;;;;;;;2.62;0.90;;;;;;;23.84;41.92;99780.47;4474806;32;33666;-80
2022/08/08 01:16:07;;;;;;;1.27;0.75;;;;;;;23.89;42.21;99774.88;4472970;32;32929;-80
2022/08/08 01:18:58;;;;;;;2.22;0.70;;;;;;;24.13;42.14;99780.31;4469228;32;34565;-80
2022/08/08 01:22:17;;;;;;;1.12;0.68;;;;;;;24.13;42.05;99788.28;4468336;32;33842;-78
2022/08/08 01:25:33;;;;;;;1.10;0.70;;;;;;;23.90;41.66;99781.88;4468758;32;33526;-78
2022/08/08 01:28:20;;;;;;;3.47;1.73;;;;;;;23.98;42.92;99787.50;4478397;32;33008;-79
2022/08/08 01:31:37;;;;;;;1.42;0.60;;;;;;;23.90;42.73;99781.88;4471196;32;34624;-80
2022/08/08 01:35:03;;;;;;;1.90;0.73;;;;;;;24.15;41.62;99795.16;4467996;32;33905;-80
2022/08/08 01:38:08;;;;;;;1.30;0.65;;;;;;;23.84;42.54;99783.12;4471512;32;33836;-80
2022/08/08 01:40:44;;;;;;;1.00;0.82;;;;;;;24.09;41.62;99773.53;4475432;32;33468;-80
2022/08/08 01:43:25;;;;;;;2.70;1.00;;;;;;;23.78;41.55;99773.81;4469908;32;33585;-82
2022/08/08 01:46:24;;;;;;;1.87;0.77;;;;;;;23.88;41.46;99765.25;4474395;32;33513;-80
2022/08/08 01:49:01;;;;;;;2.47;1.42;;;;;;;23.89;41.82;99764.28;4465981;32;34021;-81
2022/08/08 01:51:57;;;;;;;1.30;0.88;;;;;;;23.83;41.88;99763.75;4466464;32;33313;-81
2022/08/08 01:55:06;;;;;;;1.55;0.80;;;;;;;23.80;42.29;99760.44;4472215;32;33785;-81
2022/08/08 01:58:09;;;;;;;1.30;0.60;;;;;;;23.77;42.86;99755.34;4466015;32;33534;-81
2022/08/08 02:00:53;;;;;;;1.55;0.82;;;;;;;23.78;43.03;99768.50;4476472;32;34730;-81
2022/08/08 02:03:36;;;;;;;1.70;0.82;;;;;;;23.61;43.36;99766.94;4468328;32;33683;-79
2022/08/08 02:06:34;;;;;;;1.58;0.55;;;;;;;23.73;43.18;99770.63;4470411;32;34441;-80
2022/08/08 02:09:16;;;;;;;0.60;0.60;;;;;;;23.75;43.17;99771.38;4476439;32;32804;-81
2022/08/08 02:11:47;;;;;;;0.98;0.60;;;;;;;23.77;43.05;99772.09;4469765;32;33890;-80
2022/08/08 02:14:33;;;;;;;2.25;0.90;;;;;;;23.72;43.12;99770.66;4466901;32;33448;-80
2022/08/08 02:17:26;;;;;;;0.95;0.70;;;;;;;23.67;43.55;99776.28;4478002;32;34637;-79
2022/08/08 02:20:19;;;;;;;1.12;0.90;;;;;;;23.69;43.52;99781.47;4477934;32;34958;-82
2022/08/08 02:23:14;;;;;;;2.58;0.60;;;;;;;23.64;43.06;99781.78;4474141;32;33516;-80
2022/08/08 02:25:57;;;;;;;0.88;0.60;;;;;;;23.66;42.79;99782.53;4468590;32;32770;-79
2022/08/08 02:28:39;;;;;;;0.82;0.68;;;;;;;23.72;42.78;99789.22;4463287;32;34468;-80
2022/08/08 02:31:28;;;;;;;1.02;0.80;;;;;;;23.80;42.25;99793.09;4465417;32;34191;-80
2022/08/08 02:34:32;;;;;;;1.45;0.73;;;;;;;23.74;41.93;99795.28;4464202;32;33720;-81
2022/08/08 02:37:12;;;;;;;0.70;0.62;;;;;;;23.41;43.06;99804.44;4464510;32;34713;-81
2022/08/08 02:40:08;;;;;;;2.30;1.10;;;;;;;23.23;43.97;99808.31;4470116;32;34525;-80
2022/08/08 02:43:21;;;;;;;1.73;0.98;;;;;;;23.44;43.88;99806.94;4465755;32;33868;-81
2022/08/08 02:46:37;;;;;;;1.20;0.80;;;;;;;23.33;43.54;99802.31;4415339;32;33500;-81
2022/08/08 02:49:36;;;;;;;1.50;0.85;;;;;;;23.10;43.88;99805.56;4415865;32;33439;-79
2022/08/08 02:52:42;;;;;;;1.27;0.75;;;;;;;23.36;42.90;99799.44;4419776;32;33377;-80
2022/08/08 02:55:52;;;;;;;2.33;1.10;;;;;;;23.57;42.37;99793.72;4423393;32;33597;-80
2022/08/08 02:59:15;;;;;;;2.53;0.80;;;;;;;23.40;43.23;99795.66;4417317;32;34144;-79
2022/08/08 03:02:37;;;;;;;0.65;0.60;;;;;;;23.43;43.24;99805.22;4420570;32;33489;-81
2022/08/08 03:05:38;;;;;;;1.58;0.95;;;;;;;23.50;43.57;99810.97;4395985;32;33770;-79
2022/08/08 03:08:55;;;;;;;1.48;0.73;;;;;;;23.49;43.97;99815.41;4428773;32;34807;-79
2022/08/08 03:12:14;;;;;;;0.98;0.73;;;;;;;23.66;43.23;99816.97;4406418;32;33761;-80
2022/08/08 03:14:54;;;;;;;1.10;0.70;;;;;;;23.51;43.33;99808.22;4396102;32;33412;-80
2022/08/08 03:17:48;;;;;;;1.35;0.88;;;;;;;23.75;42.19;99803.16;4414777;32;33964;-80
2022/08/08 03:20:46;;;;;;;2.53;1.12;;;;;;;23.83;42.59;99811.44;4426075;32;34797;-81
2022/08/08 03:23:21;;;;;;;0.90;0.70;;;;;;;23.58;43.12;99816.59;4463016;32;33350;-81
2022/08/08 03:25:53;;;;;;;1.48;1.02;;;;;;;23.49;43.54;99815.41;4473647;32;33423;-80
2022/08/08 03:28:27;;;;;;;0.98;0.70;;;;;;;23.71;42.74;99809.56;4464234;32;34187;-80
2022/08/08 03:30:57;;;;;;;8.10;1.45;;;;;;;23.54;42.96;99817.78;4464238;32;33926;-80
2022/08/08 03:33:45;;;;;;;2.08;1.05;;;;;;;23.50;43.38;99810.97;4468544;32;34565;-79
2022/08/08 03:36:27;;;;;;;1.40;0.73;;;;;;;23.48;43.74;99812.84;4464759;32;80828;-81
2022/08/08 03:39:00;;;;;;;2.17;0.75;;;;;;;23.52;43.85;99815.22;4468050;32;33858;-82
2022/08/08 03:41:43;;;;;;;2.85;0.88;;;;;;;23.65;43.25;99823.19;4478446;31;34056;-80
2022/08/08 03:44:34;;;;;;;2.58;0.70;;;;;;;23.59;43.08;99816.50;4474982;32;34492;-80
2022/08/08 03:47:04;;;;;;;1.35;0.80;;;;;;;23.74;43.12;99813.84;4468881;32;32583;-81
2022/08/08 03:49:48;;;;;;;1.62;0.80;;;;;;;23.65;43.62;99817.91;4465702;32;33837;-79
2022/08/08 03:52:30;;;;;;;5.05;1.50;;;;;;;23.64;44.18;99817.06;4466290;32;33667;-78
2022/08/08 03:55:09;;;;;;;1.37;0.70;;;;;;;23.50;44.41;99822.41;4474935;32;33966;-79
2022/08/08 03:57:58;;;;;;;0.80;0.70;;;;;;;23.77;44.01;99819.78;4468232;32;33514;-77
2022/08/08 04:00:52;;;;;;;1.08;0.62;;;;;;;23.78;43.77;99807.41;4464347;32;33533;-78
2022/08/08 04:03:45;;;;;;;1.25;0.60;;;;;;;23.84;43.53;99805.16;4463468;32;33716;-80
2022/08/08 04:06:29;;;;;;;1.58;0.77;;;;;;;23.50;44.55;99825.03;4462677;32;33607;-77
2022/08/08 04:08:59;;;;;;;2.80;0.90;;;;;;;23.57;44.44;99834.28;4463081;32;33304;-78
2022/08/08 04:11:44;;;;;;;1.58;0.80;;;;;;;23.59;44.19;99823.59;4465041;32;33966;-78
2022/08/08 04:14:30;;;;;;;1.20;0.73;;;;;;;23.77;44.17;99814.47;4465325;32;33861;-78
2022/08/08 04:17:04;;;;;;;1.37;0.75;;;;;;;23.73;44.57;99826.25;4473482;32;33939;-78
2022/08/08 04:19:43;;;;;;;2.12;0.80;;;;;;;23.70;44.34;99828.19;4482499;32;33328;-79
2022/08/08 04:22:14;;;;;;;1.00;0.70;;;;;;;23.63;44.30;99825.09;4474721;32;34547;-78
2022/08/08 04:24:44;;;;;;;1.20;0.90;;;;;;;23.74;44.26;99833.22;4463160;32;34153;-78
2022/08/08 04:27:22;;;;;;;2.15;0.98;;;;;;;23.82;44.41;99841.53;4470108;32;33134;-78
2022/08/08 04:30:11;;;;;;;1.05;0.75;;;;;;;23.88;44.28;99850.88;4470845;32;33926;-77
2022/08/08 04:32:47;;;;;;;1.23;0.70;;;;;;;23.64;44.60;99846.19;4470959;32;33806;-79
2022/08/08 04:35:19;;;;;;;2.15;1.10;;;;;;;23.67;44.79;99853.09;4481848;32;33947;-79
2022/08/08 04:37:53;;;;;;;1.48;1.00;;;;;;;23.67;44.76;99849.59;4473271;32;33830;-78
2022/08/08 04:40:22;;;;;;;1.10;0.60;;;;;;;23.71;44.79;99848.44;4462871;32;33992;-79
2022/08/08 04:42:59;;;;;;;1.92;1.00;;;;;;;23.85;44.59;99853.72;4461312;32;34780;-77
2022/08/08 04:45:29;;;;;;;1.70;1.10;;;;;;;23.98;44.87;99843.16;4464764;32;34019;-77
2022/08/08 04:48:01;;;;;;;1.05;0.70;;;;;;;23.87;45.46;99848.31;4466663;32;34595;-77
2022/08/08 04:50:31;;;;;;;1.08;0.80;;;;;;;23.94;45.46;99854.91;4474103;32;33405;-78
2022/08/08 04:53:08;;;;;;;1.50;0.88;;;;;;;23.98;45.60;99851.13;4471997;32;33678;-80
2022/08/08 04:55:58;;;;;;;1.83;1.00;;;;;;;23.93;46.02;99863.81;4473987;32;33893;-78
2022/08/08 04:58:28;;;;;;;1.23;0.80;;;;;;;24.17;45.52;99861.34;4473660;32;34220;-79
2022/08/08 05:00:57;;;;;;;2.97;1.00;;;;;;;24.24;45.67;99865.28;4468549;32;32560;-79
2022/08/08 05:03:26;;;;;;;2.75;0.90;;;;;;;24.33;45.22;99861.13;4472867;32;33718;-80
2022/08/08 05:06:15;;;;;;;2.30;1.27;;;;;;;24.42;45.35;99869.31;4461082;31;33722;-78
2022/08/08 05:08:54;;;;;;;2.62;1.15;;;;;;;24.52;44.98;99864.28;4468149;32;33723;-79
2022/08/08 05:11:24;;;;;;;2.05;0.90;;;;;;;24.24;46.13;99863.47;4473668;32;33449;-78
2022/08/08 05:13:56;;;;;;;2.05;1.08;;;;;;;24.27;46.25;99859.75;4477479;32;34677;-78
2022/08/08 05:16:30;;;;;;;2.28;1.23;;;;;;;24.47;45.16;99866.41;4468442;32;33767;-78
2022/08/08 05:19:20;;;;;;;2.08;1.10;;;;;;;24.04;46.64;99866.59;4466613;32;33421;-77
2022/08/08 05:22:10;;;;;;;4.85;1.48;;;;;;;24.02;46.72;99861.41;4464830;32;33064;-78
2022/08/08 05:24:39;;;;;;;2.30;1.37;;;;;;;23.72;48.05;99858.94;4461728;32;33810;-78
2022/08/08 05:27:08;;;;;;;3.33;1.45;;;;;;;23.81;48.02;99861.00;4467772;32;34668;-79
2022/08/08 05:29:39;;;;;;;3.15;1.52;;;;;;;23.67;48.57;99870.78;4463478;32;34612;-79
2022/08/08 05:32:09;;;;;;;3.33;1.35;;;;;;;23.61;49.11;99880.81;4480282;31;33323;-78
2022/08/08 05:34:43;;;;;;;2.78;1.37;;;;;;;23.23;50.22;99883.25;4478088;31;33766;-78
2022/08/08 05:37:13;;;;;;;4.45;1.45;;;;;;;23.15;50.73;99880.25;4468310;32;33609;-78
2022/08/08 05:39:51;;;;;;;2.33;1.10;;;;;;;23.09;51.18;99883.25;4465422;31;34239;-78
2022/08/08 05:42:23;;;;;;;2.47;1.45;;;;;;;23.08;51.69;99878.94;4486722;31;34336;-80
2022/08/08 05:44:56;;;;;;;3.03;2.00;;;;;;;23.41;51.16;99882.09;4480622;31;33732;-78
2022/08/08 05:47:28;;;;;;;2.42;1.37;;;;;;;23.51;51.52;99876.19;4480307;31;32894;-78
2022/08/08 05:50:18;;;;;;;3.58;1.35;;;;;;;23.66;51.45;99875.22;4477986;31;34558;-78
2022/08/08 05:52:47;;;;;;;3.08;1.52;;;;;;;23.72;51.91;99880.13;4478888;32;33116;-80
2022/08/08 05:55:16;;;;;;;3.20;1.58;;;;;;;23.75;51.83;99879.97;4470617;32;33844;-79
2022/08/08 05:57:47;;;;;;;2.83;1.37;;;;;;;24.03;50.83;99881.66;4479962;32;33975;-79
2022/08/08 06:00:35;;;;;;;2.25;1.27;;;;;;;24.21;50.98;99878.72;4470270;32;35697;-79
2022/08/08 06:03:10;;;;;;;3.03;1.33;;;;;;;24.14;50.24;99870.34;4466604;32;33317;-78
2022/08/08 06:05:55;;;;;;;2.03;1.20;;;;;;;24.06;50.24;99862.03;4478886;32;33807;-79
2022/08/08 06:08:28;;;;;;;5.00;1.50;;;;;;;24.27;49.54;99863.25;4474838;32;33693;-80
2022/08/08 06:11:04;;;;;;;5.60;1.62;;;;;;;24.06;50.20;99862.03;4464457;32;33783;-78
2022/08/08 06:13:34;;;;;;;2.35;1.45;;;;;;;24.13;49.93;99865.13;4478045;32;33354;-80
2022/08/08 06:16:17;;;;;;;1.73;1.37;;;;;;;23.92;50.78;99881.53;4484945;32;34413;-78
2022/08/08 06:18:54;;;;;;;1.60;1.17;;;;;;;24.15;50.88;99882.62;4471922;31;33789;-79
2022/08/08 06:21:26;;;;;;;2.90;1.50;;;;;;;24.34;50.31;99884.91;4479446;31;34003;-79
2022/08/08 06:24:01;;;;;;;2.15;1.15;;;;;;;24.64;49.53;99874.03;4478582;32;34056;-80
2022/08/08 06:26:51;;;;;;;2.30;1.37;;;;;;;24.76;48.28;99876.81;4477311;32;34632;-80
2022/08/08 06:29:26;;;;;;;2.30;1.40;;;;;;;24.55;48.95;99882.66;4482959;31;33231;-80
2022/08/08 06:32:17;;;;;;;2.62;1.37;;;;;;;24.73;48.30;99885.00;4488022;31;34164;-79
2022/08/08 06:34:47;;;;;;;1.52;1.40;;;;;;;24.71;48.47;99874.47;4486123;31;34144;-79
2022/08/08 06:37:39;;;;;;;1.57;1.20;;;;;;;24.71;47.78;99874.47;4485173;31;33832;-80
2022/08/08 06:40:14;;;;;;;3.20;1.37;;;;;;;24.72;47.83;99875.31;4477966;31;34039;-80
2022/08/08 06:42:52;;;;;;;3.35;1.27;;;;;;;24.61;49.20;99884.88;4467971;32;33704;-79
2022/08/08 06:45:23;;;;;;;2.47;1.30;;;;;;;24.63;48.38;99887.44;4466177;31;33080;-80
2022/08/08 06:47:54;;;;;;;2.35;1.00;;;;;;;24.55;50.93;99885.31;4491592;31;34568;-80
2022/08/08 06:50:31;;;;;;;3.28;1.02;;;;;;;24.72;50.55;99891.22;4466655;32;33921;-78
2022/08/08 06:53:09;;;;;;;1.75;1.20;;;;;;;24.95;48.79;99890.50;4475957;32;33709;-80
2022/08/08 06:55:56;;;;;;;4.03;1.73;;;;;;;25.13;48.50;99883.06;4474019;32;34118;-79
2022/08/08 06:58:31;;;;;;;3.55;2.00;;;;;;;25.05;48.06;99893.34;4475576;32;34258;-80
2022/08/08 07:01:02;;;;;;;;;;;;;;;25.11;48.09;99893.78;4477747;32;33986;-79
2022/08/08 07:03:54;;;;;;;2.50;1.17;;;;;;;25.07;48.12;99888.78;4477594;32;33765;-79
2022/08/08 07:06:50;;;;;;;2.83;1.12;;;;;;;25.18;46.83;99893.34;4483096;32;33026;-80
2022/08/08 07:09:21;;;;;;;1.87;1.10;;;;;;;25.11;46.32;99893.78;4478729;32;33780;-79
2022/08/08 07:12:11;;;;;;;3.40;1.17;;;;;;;25.29;46.12;99888.16;4479912;32;34691;-78
2022/08/08 07:14:55;;;;;;;2.90;1.27;;;;;;;25.19;46.15;99884.47;4480095;32;33791;-79
2022/08/08 07:17:28;;;;;;;2.47;1.23;;;;;;;25.70;44.26;99881.66;4477631;32;32513;-78
2022/08/08 07:20:19;;;;;;;;;;;;;;;25.62;44.98;99884.03;4480254;32;33995;-78
2022/08/08 07:23:01;;;;;;;1.80;1.20;;;;;;;25.57;44.10;99879.06;4479866;32;35054;-80
2022/08/08 07:25:38;;;;;;;4.60;1.20;;;;;;;25.19;45.33;99893.25;4483914;32;34206;-80
2022/08/08 07:28:23;;;;;;;1.58;1.08;;;;;;;25.90;43.41;99894.37;4470978;32;33525;-78
2022/08/08 07:31:00;;;;;;;4.72;1.10;;;;;;;26.06;42.43;99906.53;4477121;32;33732;-78
2022/08/08 07:33:31;;;;;;;1.73;0.90;;;;;;;26.22;41.55;99904.41;4480041;32;34353;-79
2022/08/08 07:36:23;;;;;;;3.05;1.25;;;;;;;26.45;42.45;99889.38;4479646;32;33723;-80
2022/08/08 07:38:52;;;;;;;2.08;1.10;;;;;;;26.69;42.76;99905.28;4479956;32;33423;-80
2022/08/08 07:41:24;;;;;;;2.97;1.00;;;;;;;26.89;40.13;99897.59;4479671;32;33604;-80
2022/08/08 07:43:54;;;;;;;1.77;0.93;;;;;;;27.08;40.32;99902.31;4484590;32;33358;-79
2022/08/08 07:46:23;;;;;;;0.90;0.77;;;;;;;26.96;39.08;99904.97;4479463;32;33052;-79
2022/08/08 07:48:59;;;;;;;0.95;0.70;;;;;;;26.70;39.72;99911.47;4479621;32;33465;-80
2022/08/08 07:51:30;;;;;;;2.30;0.98;;;;;;;27.02;40.58;99906.31;4479156;32;34504;-80
2022/08/08 07:54:21;;;;;;;;;;;;;;;27.06;40.08;99907.75;4479492;32;34803;-78
2022/08/08 07:57:02;;;;;;;1.50;1.10;;;;;;;26.94;39.23;99914.03;4479890;32;33468;-80
2022/08/08 07:59:35;;;;;;;5.22;1.37;;;;;;;27.05;38.11;99918.53;4482537;32;33500;-78
2022/08/08 08:02:06;;;;;;;2.15;0.80;;;;;;;26.85;38.75;99926.28;4483699;32;33841;-79
2022/08/08 08:04:56;;;;;;;2.55;0.85;;;;;;;26.92;37.36;99919.50;4478706;32;34737;-80
2022/08/08 08:07:33;;;;;;;2.35;0.82;;;;;;;26.99;37.23;99920.72;4479044;32;33889;-79
2022/08/08 08:10:09;;;;;;;1.33;0.90;;;;;;;27.20;37.20;99920.88;4479161;32;33430;-79
2022/08/08 08:12:47;;;;;;;0.75;0.52;;;;;;;27.41;37.17;99914.81;4479229;32;33749;-79
2022/08/08 08:15:19;;;;;;;2.55;1.10;;;;;;;27.74;37.03;99919.25;4478716;32;33450;-79
2022/08/08 08:17:53;;;;;;;1.48;0.80;;;;;;;27.73;36.73;99922.88;4484183;32;33524;-80
2022/08/08 08:20:27;;;;;;;1.17;0.80;;;;;;;27.67;36.30;99923.38;4483556;32;33535;-80
2022/08/08 08:23:00;;;;;;;2.33;1.10;;;;;;;28.01;35.61;99920.66;4479142;32;34679;-79
2022/08/08 08:25:29;;;;;;;0.70;0.57;;;;;;;27.49;35.60;99923.03;4478093;32;33923;-79
2022/08/08 08:28:15;;;;;;;0.95;0.57;;;;;;;28.01;34.74;99918.84;4483136;31;33807;-79
2022/08/08 08:30:52;;;;;;;0.98;0.70;;;;;;;28.01;33.80;99924.16;4480207;31;33221;-80
2022/08/08 08:33:22;;;;;;;0.82;0.77;;;;;;;28.12;33.18;99925.09;4478202;32;34643;-79
2022/08/08 08:35:51;;;;;;;2.92;0.90;;;;;;;28.00;33.97;99917.13;4483955;32;34699;-78
2022/08/08 08:38:42;;;;;;;1.52;0.80;;;;;;;28.08;33.39;99922.69;4478320;32;34608;-79
2022/08/08 08:41:19;;;;;;;1.95;0.73;;;;;;;27.82;33.78;99929.28;4478513;32;33158;-79
2022/08/08 08:43:52;;;;;;;1.85;0.90;;;;;;;28.09;33.94;99940.37;4478974;32;33899;-79
2022/08/08 08:46:40;;;;;;;1.83;0.70;;;;;;;28.27;34.63;99955.81;4480187;32;34793;-79
2022/08/08 08:49:19;;;;;;;1.77;0.90;;;;;;;28.60;34.51;99954.03;4479353;32;33746;-80
2022/08/08 08:51:55;;;;;;;1.40;0.85;;;;;;;28.79;34.03;99942.63;4478798;32;34096;-79
2022/08/08 08:54:26;;;;;;;0.73;0.68;;;;;;;28.79;34.81;99938.13;4484270;31;33865;-80
2022/08/08 08:57:00;;;;;;;1.17;0.80;;;;;;;28.92;34.58;99941.47;4483632;31;33701;-79
2022/08/08 08:59:31;;;;;;;1.02;0.80;;;;;;;28.87;34.42;99932.97;4488142;31;33746;-79
2022/08/08 09:02:22;;;;;;;1.83;0.88;;;;;;;28.93;35.56;99937.78;4479796;32;33543;-80
2022/08/08 09:04:56;;;;;;;1.52;0.75;;;;;;;29.14;34.38;99937.81;4481155;32;34667;-78
2022/08/08 09:07:28;;;;;;;1.58;0.75;;;;;;;29.01;35.28;99944.31;4480464;32;34069;-79
2022/08/08 09:10:13;;;;;;;1.30;0.85;;;;;;;29.02;35.99;99946.84;4481461;32;34640;-79
2022/08/08 09:12:46;;;;;;;1.50;0.73;;;;;;;29.00;34.94;99945.28;4485819;32;33581;-80
2022/08/08 09:15:18;;;;;;;2.90;1.12;;;;;;;29.06;34.64;99942.94;4480362;32;33797;-81
2022/08/08 09:18:07;;;;;;;2.17;0.82;;;;;;;28.93;35.35;99945.81;4480468;32;34720;-79
2022/08/08 09:20:39;;;;;;;1.40;1.00;;;;;;;28.92;34.87;99941.47;4480010;32;33828;-80
2022/08/08 09:23:30;;;;;;;3.92;0.90;;;;;;;28.72;35.27;99958.31;4480464;32;34006;-80
2022/08/08 09:26:09;;;;;;;3.15;1.08;;;;;;;28.59;36.35;99953.19;4479984;32;33523;-79
2022/08/08 09:28:40;;;;;;;1.77;0.90;;;;;;;28.54;35.59;99950.06;4481707;31;34776;-79
2022/08/08 09:31:14;;;;;;;1.40;0.75;;;;;;;28.56;36.24;99941.91;4483062;32;34000;-79
2022/08/08 09:33:45;;;;;;;3.05;1.33;;;;;;;28.48;36.82;99945.22;4479573;32;33262;-78
2022/08/08 09:36:39;;;;;;;1.42;0.90;;;;;;;28.32;36.85;99950.09;4479444;32;34409;-78
2022/08/08 09:39:21;;;;;;;1.67;0.90;;;;;;;28.09;38.15;99951.03;4480518;32;34783;-79
2022/08/08 09:42:01;;;;;;;2.67;1.25;;;;;;;28.21;37.57;99948.34;4480005;32;33126;-80
2022/08/08 09:45:03;;;;;;;2.40;1.30;;;;;;;27.91;37.85;99952.56;4479663;32;34191;-79
2022/08/08 09:47:44;;;;;;;2.28;1.20;;;;;;;27.89;38.76;99941.19;4480241;32;34622;-79
2022/08/08 09:50:33;;;;;;;1.95;1.17;;;;;;;27.90;38.55;99942.84;4480252;32;34898;-78
2022/08/08 09:53:05;;;;;;;2.43;1.00;;;;;;;28.17;38.03;99925.56;4482726;32;34420;-79
2022/08/08 09:55:53;;;;;;;2.08;1.10;;;;;;;28.00;38.93;99927.78;4485516;32;33373;-79
2022/08/08 09:58:38;;;;;;;4.32;1.20;;;;;;;27.80;39.25;99928.56;4484778;32;33441;-79
2022/08/08 10:01:12;;;;;;;1.67;0.90;;;;;;;28.32;37.92;99928.75;4479543;32;33775;-79
2022/08/08 10:04:02;;;;;;;2.10;0.95;;;;;;;27.91;38.78;99927.69;4479796;32;34021;-81
2022/08/08 10:06:32;;;;;;;2.00;1.02;;;;;;;27.86;38.75;99925.44;4479253;32;33649;-79
2022/08/08 10:09:03;;;;;;;;;;;;;;;27.96;38.98;99923.72;4480116;32;32927;-80
2022/08/08 10:11:37;;;;;;;1.65;1.10;;;;;;;27.99;38.22;99931.44;4479734;32;35075;-78
2022/08/08 10:14:36;;;;;;;;;;;;;;;27.86;38.90;99934.28;4484408;31;34459;-79
2022/08/08 10:17:08;;;;;;;2.33;1.30;;;;;;;28.05;39.36;99932.75;4491334;31;32826;-79
2022/08/08 10:19:58;;;;;;;1.40;0.82;;;;;;;28.24;37.77;99940.09;4463478;32;34377;-79
2022/08/08 10:22:28;;;;;;;;;;;;;;;28.04;38.75;99939.06;4464137;32;34164;-79
2022/08/08 10:25:03;;;;;;;5.87;1.85;;;;;;;28.23;39.34;99944.56;4464662;32;33970;-79
2022/08/08 10:27:41;;;;;;;1.98;1.12;;;;;;;28.28;37.63;99937.03;4478169;32;33330;-79
2022/08/08 10:30:12;;;;;;;1.87;1.00;;;;;;;28.20;39.04;99931.50;4479250;32;33803;-80
2022/08/08 10:33:01;;;;;;;2.62;1.20;;;;;;;28.05;38.75;99932.75;4479904;32;34006;-80
2022/08/08 10:35:31;;;;;;;3.40;1.40;;;;;;;28.42;38.25;99925.22;4484680;32;33785;-78
2022/08/08 10:38:20;;;;;;;1.58;1.00;;;;;;;28.13;38.11;99924.97;4477910;32;33280;-80
2022/08/08 10:40:51;;;;;;;;;;;;;;;27.67;39.18;99918.06;4477547;32;34472;-79
2022/08/08 10:43:21;;;;;;;3.00;1.42;;;;;;;27.84;38.66;99914.06;4480040;31;34164;-79
2022/08/08 10:45:55;;;;;;;1.57;1.07;;;;;;;27.86;39.39;99912.09;4488029;31;35380;-80
2022/08/08 10:48:33;;;;;;;1.37;1.05;;;;;;;27.80;39.03;99918.72;4491915;31;33862;-79
2022/08/08 10:51:23;;;;;;;1.62;1.12;;;;;;;27.75;39.29;99915.59;4490042;31;33735;-80
2022/08/08 10:53:54;;;;;;;2.12;1.42;;;;;;;27.74;40.25;99934.38;4486933;31;34096;-78
2022/08/08 10:56:33;;;;;;;2.83;1.48;;;;;;;27.64;40.42;99934.28;4485563;31;33950;-80
2022/08/08 10:59:06;;;;;;;3.35;1.50;;;;;;;27.58;41.73;99948.09;4495208;31;33650;-79
2022/08/08 11:01:38;;;;;;;2.80;1.40;;;;;;;27.08;42.81;99944.94;4495550;31;34531;-80
2022/08/08 11:04:08;;;;;;;4.57;1.45;;;;;;;26.83;44.03;99943.31;4495311;31;33891;-80
2022/08/08 11:06:39;;;;;;;2.58;1.45;;;;;;;26.63;45.48;99936.84;4500608;31;34029;-78
2022/08/08 11:09:14;;;;;;;3.45;1.58;;;;;;;26.43;46.22;99947.16;4494450;31;33446;-79
2022/08/08 11:11:52;;;;;;;1.40;1.17;;;;;;;26.10;47.62;99931.94;4468239;32;34533;-79
2022/08/08 11:14:53;;;;;;;2.95;1.55;;;;;;;26.18;48.03;99934.84;4479216;32;33751;-80
2022/08/08 11:17:26;;;;;;;3.20;1.50;;;;;;;26.20;47.53;99942.72;4478335;32;33488;-78
2022/08/08 11:20:17;;;;;;;4.05;1.58;;;;;;;25.80;49.01;99935.81;4479728;32;33456;-80
2022/08/08 11:22:56;;;;;;;3.37;1.30;;;;;;;26.01;48.80;99932.59;4478889;32;34727;-79
2022/08/08 11:25:28;;;;;;;5.30;1.80;;;;;;;26.35;47.58;99928.28;4484138;32;34573;-80
2022/08/08 11:28:23;;;;;;;2.60;1.50;;;;;;;26.69;47.63;99925.75;4484624;32;33715;-78
2022/08/08 11:30:57;;;;;;;2.83;1.83;;;;;;;26.83;47.28;99932.69;4478317;32;33919;-78
2022/08/08 11:33:31;;;;;;;3.30;1.50;;;;;;;26.77;46.87;99923.34;4480086;32;33672;-79
2022/08/08 11:36:20;;;;;;;2.25;1.20;;;;;;;26.32;47.26;99921.38;4479531;32;34079;-80
2022/08/08 11:38:49;;;;;;;3.45;1.77;;;;;;;26.45;46.76;99923.94;4478978;32;34446;-80
2022/08/08 11:41:23;;;;;;;1.95;1.10;;;;;;;26.50;47.27;99927.09;4477819;32;34194;-79
2022/08/08 11:43:59;;;;;;;3.35;1.70;;;;;;;26.50;48.38;99928.94;4487702;31;33720;-80
2022/08/08 11:46:29;;;;;;;2.75;1.50;;;;;;;26.33;48.88;99935.53;4488986;31;33860;-79
2022/08/08 11:49:03;;;;;;;2.33;1.60;;;;;;;25.85;50.48;99940.81;4481786;31;34741;-78
2022/08/08 11:51:34;;;;;;;3.53;1.92;;;;;;;25.79;51.09;99947.44;4483946;31;33704;-79
2022/08/08 11:54:17;;;;;;;3.10;1.80;;;;;;;25.66;51.76;99933.31;4481792;31;33728;-80
2022/08/08 11:57:11;;;;;;;2.70;1.90;;;;;;;25.58;52.83;99941.00;4484455;31;33830;-78
2022/08/08 11:59:44;;;;;;;5.60;2.03;;;;;;;25.58;53.21;99941.00;4484636;31;34468;-78
2022/08/08 12:02:47;;;;;;;5.40;2.20;;;;;;;24.85;55.78;99950.47;4494496;31;33178;-79
2022/08/08 12:05:31;;;;;;;3.40;2.15;;;;;;;25.08;54.88;99948.88;4489008;31;33754;-80
2022/08/08 12:08:01;;;;;;;4.05;1.98;;;;;;;25.04;54.84;99952.72;4489125;31;34549;-80
2022/08/08 12:10:33;;;;;;;3.35;2.00;;;;;;;24.84;54.08;99943.44;4489197;31;32661;-80
2022/08/08 12:13:06;;;;;;;3.28;1.83;;;;;;;24.64;55.19;99950.97;4491963;31;33934;-79
2022/08/08 12:15:38;;;;;;;2.80;1.60;;;;;;;24.74;54.64;99963.63;4495014;31;33264;-79
2022/08/08 12:18:16;;;;;;;3.10;1.48;;;;;;;25.08;53.65;99947.09;4494938;31;33965;-79
2022/08/08 12:20:51;;;;;;;4.30;1.85;;;;;;;25.15;53.39;99944.84;4495026;31;33382;-81
2022/08/08 12:23:29;;;;;;;3.37;1.67;;;;;;;24.83;54.24;99945.25;4491205;31;32982;-79
2022/08/08 12:26:22;;;;;;;3.95;1.70;;;;;;;24.68;54.43;99943.66;4483602;32;33690;-80
2022/08/08 12:29:19;;;;;;;2.37;1.25;;;;;;;24.79;54.69;99935.84;4478354;32;34885;-79
2022/08/08 12:32:01;;;;;;;2.12;1.37;;;;;;;25.12;53.55;99942.41;4479021;32;33552;-79
2022/08/08 12:34:44;;;;;;;1.87;1.40;;;;;;;25.00;52.72;99935.31;4479568;32;33247;-78
2022/08/08 12:37:22;;;;;;;2.55;1.80;;;;;;;25.06;52.73;99937.53;4479482;32;33509;-79
2022/08/08 12:40:12;;;;;;;3.40;1.45;;;;;;;24.99;52.53;99936.28;4479607;32;34123;-78
2022/08/08 12:42:54;;;;;;;3.30;1.75;;;;;;;24.81;53.43;99938.38;4480588;32;34130;-78
2022/08/08 12:45:32;;;;;;;2.08;1.35;;;;;;;25.41;51.77;99932.41;4480416;32;36165;-80
2022/08/08 12:48:23;;;;;;;1.90;1.35;;;;;;;25.15;52.23;99946.66;4482634;32;33252;-77